createdAt,value
2017-11-22T00:01:44.234Z,88.66
2017-11-22T00:04:10.339Z,88.49
2017-11-22T00:06:36.509Z,88.09
2017-11-22T00:09:02.618Z,88.67
2017-11-22T00:11:28.689Z,88.61
2017-11-22T00:13:54.852Z,88.83
2017-11-22T00:16:21.014Z,88.76
2017-11-22T00:18:47.109Z,88.48
2017-11-22T00:21:13.207Z,89.00
2017-11-22T00:23:39.401Z,88.93
2017-11-22T00:26:05.497Z,89.04
2017-11-22T00:28:31.621Z,89.04
2017-11-22T00:30:57.737Z,88.83
2017-11-22T00:33:23.825Z,88.71
2017-11-22T00:35:49.951Z,88.91
2017-11-22T00:38:16.085Z,89.16
2017-11-22T00:40:42.224Z,88.65
2017-11-22T00:43:08.357Z,88.80
2017-11-22T00:45:34.471Z,88.86
2017-11-22T00:48:00.617Z,89.16
2017-11-22T00:50:26.747Z,89.36
2017-11-22T00:52:52.852Z,88.37
2017-11-22T00:55:18.950Z,88.44
2017-11-22T00:57:45.054Z,88.73
2017-11-22T01:00:11.196Z,88.73
2017-11-22T01:02:37.405Z,89.06
2017-11-22T01:05:03.510Z,88.71
2017-11-22T01:07:29.813Z,88.94
2017-11-22T01:09:55.926Z,88.70
2017-11-22T01:12:22.034Z,88.48
2017-11-22T01:14:48.170Z,88.31
2017-11-22T01:17:14.286Z,88.39
2017-11-22T01:19:40.462Z,88.03
2017-11-22T01:22:06.557Z,88.81
2017-11-22T01:24:32.633Z,88.43
2017-11-22T01:26:58.742Z,88.36
2017-11-22T01:29:24.885Z,88.47
2017-11-22T01:31:51.114Z,88.62
2017-11-22T01:34:17.204Z,88.70
2017-11-22T01:36:43.304Z,88.39
2017-11-22T01:39:09.429Z,88.35
2017-11-22T01:41:35.577Z,88.68
2017-11-22T01:44:01.671Z,88.54
2017-11-22T01:46:27.753Z,89.20
2017-11-22T01:48:53.832Z,89.33
2017-11-22T01:51:19.877Z,88.88
2017-11-22T01:53:45.998Z,88.90
2017-11-22T01:56:12.137Z,88.75
2017-11-22T01:58:38.393Z,88.71
2017-11-22T02:01:04.521Z,88.83
2017-11-22T02:03:30.639Z,88.75
2017-11-22T02:05:56.735Z,89.40
2017-11-22T02:08:22.818Z,89.41
2017-11-22T02:10:48.938Z,89.27
2017-11-22T02:13:15.102Z,88.78
2017-11-22T02:15:41.259Z,88.49
2017-11-22T02:18:07.352Z,88.71
2017-11-22T02:20:33.488Z,88.61
2017-11-22T02:22:59.587Z,88.63
2017-11-22T02:25:25.701Z,88.57
2017-11-22T02:27:51.825Z,88.37
2017-11-22T02:30:17.925Z,88.54
2017-11-22T02:32:44.099Z,88.53
2017-11-22T02:35:10.558Z,88.67
2017-11-22T02:37:36.633Z,88.43
2017-11-22T02:40:02.847Z,88.52
2017-11-22T02:42:28.957Z,88.91
2017-11-22T02:44:55.015Z,88.68
2017-11-22T02:47:21.126Z,88.85
2017-11-22T02:49:47.306Z,89.39
2017-11-22T02:52:13.462Z,89.07
2017-11-22T02:54:39.546Z,88.99
2017-11-22T02:57:05.622Z,89.00
2017-11-22T02:59:31.777Z,88.95
2017-11-22T03:01:57.909Z,88.66
2017-11-22T03:04:23.984Z,88.30
2017-11-22T03:06:50.094Z,88.36
2017-11-22T03:09:16.245Z,88.07
2017-11-22T03:11:42.386Z,88.18
2017-11-22T03:14:08.492Z,88.02
2017-11-22T03:16:34.590Z,88.57
2017-11-22T03:19:00.721Z,88.47
2017-11-22T03:21:26.786Z,88.43
2017-11-22T03:23:52.920Z,88.28
2017-11-22T03:26:19.030Z,88.64
2017-11-22T03:28:45.072Z,88.18
2017-11-22T03:31:11.200Z,88.17
2017-11-22T03:33:37.317Z,88.16
2017-11-22T03:36:03.394Z,88.39
2017-11-22T03:38:29.509Z,88.20
2017-11-22T03:40:55.682Z,88.49
2017-11-22T03:43:21.810Z,88.23
2017-11-22T03:45:47.938Z,88.24
2017-11-22T03:48:14.929Z,88.45
2017-11-22T03:50:47.150Z,88.19
2017-11-22T03:53:19.504Z,88.03
2017-11-22T03:55:45.725Z,88.08
2017-11-22T03:58:16.717Z,88.09
2017-11-22T04:00:42.762Z,87.91
2017-11-22T04:03:08.942Z,88.18
2017-11-22T04:05:36.894Z,87.79
2017-11-22T04:08:03.082Z,87.97
2017-11-22T04:10:29.257Z,87.69
2017-11-22T04:12:55.357Z,87.75
2017-11-22T04:15:21.513Z,87.83
2017-11-22T04:17:47.658Z,87.71
2017-11-22T04:20:19.998Z,87.66
2017-11-22T04:22:46.121Z,87.55
2017-11-22T04:25:12.222Z,87.69
2017-11-22T04:27:38.353Z,87.82
2017-11-22T04:30:04.434Z,87.99
2017-11-22T04:32:30.589Z,88.09
2017-11-22T04:34:56.725Z,87.65
2017-11-22T04:37:22.845Z,87.73
2017-11-22T04:39:48.945Z,87.75
2017-11-22T04:42:15.038Z,87.55
2017-11-22T04:44:41.156Z,87.56
2017-11-22T04:47:07.305Z,87.34
2017-11-22T04:49:33.375Z,87.45
2017-11-22T04:51:59.506Z,86.88
2017-11-22T04:54:25.629Z,86.73
2017-11-22T04:56:51.746Z,86.61
2017-11-22T04:59:17.857Z,86.58
2017-11-22T05:01:43.965Z,86.60
2017-11-22T05:04:10.134Z,86.60
2017-11-22T05:06:36.247Z,86.79
2017-11-22T05:09:02.330Z,86.62
2017-11-22T05:11:28.460Z,86.71
2017-11-22T05:13:54.581Z,86.69
2017-11-22T05:16:20.937Z,86.84
2017-11-22T05:18:47.072Z,86.92
2017-11-22T05:21:13.213Z,87.01
2017-11-22T05:23:39.371Z,87.03
2017-11-22T05:26:05.445Z,87.13
2017-11-22T05:28:31.589Z,87.20
2017-11-22T05:30:57.733Z,87.43
2017-11-22T05:33:23.834Z,87.69
2017-11-22T05:35:49.942Z,87.43
2017-11-22T05:38:16.090Z,87.75
2017-11-22T05:40:42.195Z,87.72
2017-11-22T05:43:08.335Z,87.78
2017-11-22T05:45:34.471Z,87.78
2017-11-22T05:48:00.585Z,87.84
2017-11-22T05:50:26.710Z,87.97
2017-11-22T05:52:52.781Z,87.92
2017-11-22T05:55:18.880Z,87.80
2017-11-22T05:57:45.012Z,87.80
2017-11-22T06:00:13.892Z,87.93
2017-11-22T06:02:40.037Z,88.01
2017-11-22T06:05:06.092Z,87.85
2017-11-22T06:07:32.205Z,88.08
2017-11-22T06:09:58.318Z,87.93
2017-11-22T06:12:24.422Z,88.20
2017-11-22T06:14:51.408Z,88.49
2017-11-22T06:17:17.534Z,88.28
2017-11-22T06:19:43.662Z,88.23
2017-11-22T06:22:09.814Z,88.19
2017-11-22T06:24:35.895Z,88.36
2017-11-22T06:27:02.070Z,88.43
2017-11-22T06:29:28.251Z,88.38
2017-11-22T06:31:54.386Z,88.50
2017-11-22T06:34:20.517Z,88.55
2017-11-22T06:36:46.641Z,88.42
2017-11-22T06:39:15.653Z,88.35
2017-11-22T06:41:41.857Z,88.36
2017-11-22T06:44:08.038Z,88.48
2017-11-22T06:46:34.142Z,87.89
2017-11-22T06:49:00.281Z,88.14
2017-11-22T06:51:26.480Z,88.18
2017-11-22T06:53:52.609Z,88.30
2017-11-22T06:56:18.749Z,88.04
2017-11-22T06:58:44.841Z,87.88
2017-11-22T07:01:10.976Z,87.73
2017-11-22T07:03:43.081Z,87.83
2017-11-22T07:06:09.181Z,87.92
2017-11-22T07:08:35.389Z,87.85
2017-11-22T07:11:01.548Z,88.00
2017-11-22T07:13:27.662Z,87.85
2017-11-22T07:15:54.699Z,87.80
2017-11-22T07:18:20.829Z,87.68
2017-11-22T07:20:46.917Z,87.67
2017-11-22T07:23:13.044Z,87.84
2017-11-22T07:25:39.122Z,87.67
2017-11-22T07:28:05.254Z,87.47
2017-11-22T07:30:31.450Z,87.56
2017-11-22T07:32:57.545Z,87.51
2017-11-22T07:35:29.666Z,87.28
2017-11-22T07:38:01.707Z,87.58
2017-11-22T07:40:29.755Z,87.40
2017-11-22T07:42:55.913Z,87.32
2017-11-22T07:45:22.025Z,87.67
2017-11-22T07:47:54.281Z,87.21
2017-11-22T07:50:20.399Z,87.47
2017-11-22T07:52:46.559Z,87.96
2017-11-22T07:55:12.712Z,87.54
2017-11-22T07:57:38.829Z,87.51
2017-11-22T08:00:04.944Z,87.77
2017-11-22T08:02:31.082Z,87.58
2017-11-22T08:04:57.823Z,87.29
2017-11-22T08:07:24.973Z,87.31
2017-11-22T08:09:51.091Z,87.21
2017-11-22T08:12:17.209Z,87.02
2017-11-22T08:14:43.373Z,87.11
2017-11-22T08:17:09.519Z,86.96
2017-11-22T08:19:35.677Z,86.83
2017-11-22T08:22:01.797Z,86.60
2017-11-22T08:24:27.914Z,86.49
2017-11-22T08:26:54.045Z,86.29
2017-11-22T08:29:20.154Z,86.52
2017-11-22T08:31:46.270Z,86.24
2017-11-22T08:34:12.397Z,86.11
2017-11-22T08:36:38.493Z,85.92
2017-11-22T08:39:04.615Z,85.69
2017-11-22T08:41:36.687Z,85.94
2017-11-22T08:44:02.778Z,85.72
2017-11-22T08:46:28.894Z,85.67
2017-11-22T08:48:55.025Z,85.53
2017-11-22T08:51:21.175Z,85.17
2017-11-22T08:53:47.309Z,85.75
2017-11-22T08:56:19.468Z,85.59
2017-11-22T08:58:45.574Z,85.45
2017-11-22T09:01:11.722Z,84.86
2017-11-22T09:03:43.825Z,85.10
2017-11-22T09:06:16.226Z,85.46
2017-11-22T09:08:42.337Z,85.14
2017-11-22T09:11:08.457Z,84.86
2017-11-22T09:13:34.573Z,85.02
2017-11-22T09:16:00.667Z,84.88
2017-11-22T09:18:32.738Z,84.34
2017-11-22T09:20:58.851Z,84.39
2017-11-22T09:23:24.948Z,84.78
2017-11-22T09:25:51.110Z,84.83
2017-11-22T09:28:17.189Z,84.80
2017-11-22T09:30:49.222Z,84.64
2017-11-22T09:33:17.370Z,84.73
2017-11-22T09:35:43.498Z,84.63
2017-11-22T09:38:09.619Z,84.33
2017-11-22T09:40:35.810Z,84.37
2017-11-22T09:43:01.958Z,84.96
2017-11-22T09:45:28.079Z,84.38
2017-11-22T09:47:54.181Z,84.46
2017-11-22T09:50:20.366Z,84.09
2017-11-22T09:52:46.543Z,84.01
2017-11-22T09:55:12.644Z,84.32
2017-11-22T09:57:38.798Z,84.36
2017-11-22T10:00:04.943Z,84.39
2017-11-22T10:02:31.161Z,84.06
2017-11-22T10:04:57.313Z,84.33
2017-11-22T10:07:23.421Z,84.81
2017-11-22T10:09:49.617Z,83.54
2017-11-22T10:12:15.749Z,83.72
2017-11-22T10:14:41.870Z,82.98
2017-11-22T10:17:12.105Z,82.75
2017-11-22T10:19:43.126Z,82.40
2017-11-22T10:22:09.349Z,82.69
2017-11-22T10:24:41.529Z,82.41
2017-11-22T10:27:13.829Z,82.34
2017-11-22T10:29:46.093Z,81.92
2017-11-22T10:32:18.350Z,81.83
2017-11-22T10:34:44.432Z,81.39
2017-11-22T10:37:10.583Z,80.90
2017-11-22T10:39:36.692Z,80.85
2017-11-22T10:42:02.826Z,81.03
2017-11-22T10:44:28.911Z,80.31
2017-11-22T10:46:55.059Z,79.41
2017-11-22T10:49:21.197Z,79.85
2017-11-22T10:51:47.345Z,79.44
2017-11-22T10:54:13.486Z,79.67
2017-11-22T10:56:39.623Z,78.99
2017-11-22T10:59:05.711Z,78.03
2017-11-22T11:01:31.858Z,78.45
2017-11-22T11:03:57.951Z,77.89
2017-11-22T11:06:24.145Z,77.80
2017-11-22T11:08:50.239Z,78.50
2017-11-22T11:11:16.411Z,77.81
2017-11-22T11:13:42.597Z,77.54
2017-11-22T11:16:08.669Z,77.32
2017-11-22T11:18:34.789Z,77.13
2017-11-22T11:21:00.930Z,77.90
2017-11-22T11:23:27.037Z,77.78
2017-11-22T11:25:53.153Z,76.25
2017-11-22T11:28:19.323Z,75.72
2017-11-22T11:30:45.450Z,75.87
2017-11-22T11:33:11.597Z,75.84
2017-11-22T11:35:49.809Z,76.21
2017-11-22T11:38:15.937Z,77.36
2017-11-22T11:40:42.017Z,77.50
2017-11-22T11:43:08.142Z,78.29
2017-11-22T11:45:34.257Z,77.84
2017-11-22T11:48:00.408Z,77.10
2017-11-22T11:50:26.552Z,77.34
2017-11-22T11:52:52.730Z,77.24
2017-11-22T11:55:18.870Z,77.33
2017-11-22T11:57:44.997Z,77.92
2017-11-22T12:00:11.160Z,77.40
2017-11-22T12:02:37.253Z,77.73
2017-11-22T12:05:03.559Z,77.12
2017-11-22T12:07:29.710Z,76.95
2017-11-22T12:09:55.867Z,77.34
2017-11-22T12:12:21.966Z,77.14
2017-11-22T12:14:48.077Z,76.85
2017-11-22T12:17:14.238Z,76.98
2017-11-22T12:19:40.457Z,76.66
2017-11-22T12:22:12.562Z,75.40
2017-11-22T12:24:38.662Z,74.65
2017-11-22T12:27:04.833Z,75.25
2017-11-22T12:29:30.929Z,74.01
2017-11-22T12:31:57.037Z,72.80
2017-11-22T12:34:23.169Z,73.91
2017-11-22T12:36:49.305Z,71.01
2017-11-22T12:39:15.591Z,71.22
2017-11-22T12:41:41.688Z,70.91
2017-11-22T12:44:09.750Z,71.13
2017-11-22T12:46:35.850Z,72.15
2017-11-22T12:49:02.026Z,71.62
2017-11-22T12:51:28.131Z,72.58
2017-11-22T12:53:54.233Z,72.54
2017-11-22T12:56:20.394Z,72.33
2017-11-22T12:58:46.458Z,71.16
2017-11-22T13:01:12.598Z,69.23
2017-11-22T13:03:38.697Z,67.36
2017-11-22T13:06:04.825Z,65.82
2017-11-22T13:08:30.959Z,64.08
2017-11-22T13:10:57.099Z,63.17
2017-11-22T13:13:25.360Z,62.37
2017-11-22T13:15:51.471Z,62.04
2017-11-22T13:18:17.579Z,59.63
2017-11-22T13:20:43.712Z,58.77
2017-11-22T13:23:09.755Z,58.34
2017-11-22T13:25:35.921Z,57.27
2017-11-22T13:28:02.118Z,58.33
2017-11-22T13:30:28.206Z,58.61
2017-11-22T13:32:54.337Z,59.26
2017-11-22T13:35:20.400Z,58.49
2017-11-22T13:37:46.501Z,59.40
2017-11-22T13:40:12.590Z,59.67
2017-11-22T13:42:38.726Z,60.27
2017-11-22T13:45:07.863Z,60.53
2017-11-22T13:47:33.925Z,61.36
2017-11-22T13:50:00.045Z,61.82
2017-11-22T13:52:26.166Z,62.14
2017-11-22T13:54:52.266Z,61.69
2017-11-22T13:57:18.413Z,60.46
2017-11-22T13:59:44.530Z,60.41
2017-11-22T14:02:10.599Z,60.09
2017-11-22T14:04:36.737Z,60.70
2017-11-22T14:07:02.835Z,61.18
2017-11-22T14:09:28.931Z,60.81
2017-11-22T14:11:55.097Z,59.01
2017-11-22T14:14:21.189Z,58.87
2017-11-22T14:16:47.323Z,58.00
2017-11-22T14:19:13.473Z,58.19
2017-11-22T14:21:39.531Z,57.74
2017-11-22T14:24:05.641Z,56.80
2017-11-22T14:26:31.767Z,57.62
2017-11-22T14:28:57.901Z,56.53
2017-11-22T14:31:24.011Z,56.94
2017-11-22T14:33:50.125Z,56.87
2017-11-22T14:36:16.734Z,59.12
2017-11-22T14:38:42.798Z,59.71
2017-11-22T14:41:08.862Z,58.89
2017-11-22T14:43:34.983Z,59.11
2017-11-22T14:46:01.078Z,58.98
2017-11-22T14:48:27.213Z,58.67
2017-11-22T14:50:53.339Z,59.15
2017-11-22T14:53:19.429Z,61.25
2017-11-22T14:55:45.621Z,62.31
2017-11-22T14:58:11.729Z,63.35
2017-11-22T15:00:37.869Z,64.91
2017-11-22T15:03:04.030Z,67.01
2017-11-22T15:05:30.141Z,68.37
2017-11-22T15:07:56.260Z,69.06
2017-11-22T15:10:22.397Z,69.44
2017-11-22T15:12:49.614Z,70.32
2017-11-22T15:15:15.699Z,70.52
2017-11-22T15:17:41.853Z,71.58
2017-11-22T15:20:07.902Z,72.23
2017-11-22T15:22:34.037Z,73.73
2017-11-22T15:25:00.268Z,73.82
2017-11-22T15:27:26.396Z,75.57
2017-11-22T15:29:52.496Z,76.50
2017-11-22T15:32:18.644Z,77.53
2017-11-22T15:34:44.739Z,77.01
2017-11-22T15:37:10.881Z,77.00
2017-11-22T15:39:36.993Z,77.21
2017-11-22T15:42:03.069Z,77.47
2017-11-22T15:44:29.143Z,77.98
2017-11-22T15:46:55.313Z,78.23
2017-11-22T15:49:21.446Z,78.51
2017-11-22T15:51:47.510Z,78.77
2017-11-22T15:54:13.623Z,79.14
2017-11-22T15:56:39.802Z,79.92
2017-11-22T15:59:05.974Z,79.84
2017-11-22T16:01:32.098Z,79.82
2017-11-22T16:03:58.368Z,80.10
2017-11-22T16:06:24.585Z,80.46
2017-11-22T16:08:50.780Z,81.10
2017-11-22T16:11:16.945Z,81.88
2017-11-22T16:13:43.058Z,82.51
2017-11-22T16:16:09.209Z,83.87
2017-11-22T16:18:35.404Z,84.01
2017-11-22T16:21:01.525Z,84.02
2017-11-22T16:23:27.726Z,84.82
2017-11-22T16:25:53.940Z,84.71
2017-11-22T16:28:20.091Z,85.09
2017-11-22T16:30:46.258Z,85.16
2017-11-22T16:33:12.480Z,85.91
2017-11-22T16:35:38.666Z,87.40
2017-11-22T16:38:04.871Z,86.92
2017-11-22T16:40:31.090Z,87.84
2017-11-22T16:42:57.295Z,88.62
2017-11-22T16:45:23.454Z,88.57
2017-11-22T16:47:49.606Z,88.58
2017-11-22T16:50:15.759Z,88.74
2017-11-22T16:52:41.897Z,89.42
2017-11-22T16:55:07.981Z,89.28
2017-11-22T16:57:34.117Z,90.07
2017-11-22T17:00:00.206Z,90.22
2017-11-22T17:02:27.222Z,90.13
2017-11-22T17:04:53.427Z,90.60
2017-11-22T17:07:19.762Z,90.63
2017-11-22T17:09:45.945Z,89.75
2017-11-22T17:12:13.135Z,89.59
2017-11-22T17:14:39.284Z,90.11
2017-11-22T17:17:05.617Z,89.74
2017-11-22T17:19:31.759Z,88.82
2017-11-22T17:21:58.050Z,88.88
2017-11-22T17:24:24.234Z,88.23
2017-11-22T17:26:50.389Z,89.09
2017-11-22T17:29:16.490Z,88.90
2017-11-22T17:31:42.650Z,88.57
2017-11-22T17:34:08.841Z,88.75
2017-11-22T17:36:35.097Z,88.88
2017-11-22T17:39:01.346Z,89.31
2017-11-22T17:41:27.473Z,88.87
2017-11-22T17:43:53.760Z,88.59
2017-11-22T17:46:20.093Z,88.50
2017-11-22T17:48:46.238Z,88.84
2017-11-22T17:51:12.383Z,88.39
2017-11-22T17:53:38.490Z,88.29
2017-11-22T17:56:04.629Z,87.97
2017-11-22T17:58:30.837Z,87.81
2017-11-22T18:00:57.017Z,88.48
2017-11-22T18:03:23.701Z,88.47
2017-11-22T18:05:49.799Z,88.52
2017-11-22T18:08:15.930Z,88.68
2017-11-22T18:10:42.166Z,88.70
2017-11-22T18:13:08.262Z,88.20
2017-11-22T18:15:34.412Z,88.29
2017-11-22T18:18:00.607Z,88.23
2017-11-22T18:20:26.678Z,88.26
2017-11-22T18:22:52.879Z,88.08
2017-11-22T18:25:19.029Z,87.81
2017-11-22T18:27:45.265Z,88.14
2017-11-22T18:30:11.846Z,87.83
2017-11-22T18:32:38.029Z,87.64
2017-11-22T18:35:04.806Z,87.55
2017-11-22T18:37:31.017Z,87.59
2017-11-22T18:39:57.192Z,88.33
2017-11-22T18:42:23.313Z,88.04
2017-11-22T18:44:49.429Z,88.97
2017-11-22T18:47:15.575Z,89.09
2017-11-22T18:49:42.754Z,89.30
2017-11-22T18:52:08.888Z,89.05
2017-11-22T18:54:35.046Z,88.16
2017-11-22T18:57:01.335Z,87.71
2017-11-22T18:59:27.467Z,87.79
2017-11-22T19:01:53.607Z,89.71
2017-11-22T19:04:19.722Z,89.02
2017-11-22T19:06:45.813Z,88.36
2017-11-22T19:09:11.971Z,87.87
2017-11-22T19:11:38.116Z,87.92
2017-11-22T19:14:05.217Z,88.37
2017-11-22T19:16:31.650Z,87.71
2017-11-22T19:18:57.805Z,87.76
2017-11-22T19:21:23.959Z,87.81
2017-11-22T19:23:50.131Z,88.02
2017-11-22T19:26:16.228Z,87.75
2017-11-22T19:28:42.315Z,87.33
2017-11-22T19:31:08.466Z,87.70
2017-11-22T19:33:35.686Z,87.25
2017-11-22T19:36:02.283Z,87.99
2017-11-22T19:38:29.376Z,88.24
2017-11-22T19:40:57.649Z,88.92
2017-11-22T19:43:23.839Z,89.10
2017-11-22T19:45:49.984Z,89.01
2017-11-22T19:48:16.219Z,88.97
2017-11-22T19:50:42.386Z,88.43
2017-11-22T19:55:41.221Z,89.29
2017-11-22T19:58:08.102Z,89.12
2017-11-22T20:00:34.293Z,88.17
2017-11-22T20:03:01.261Z,88.44
2017-11-22T20:15:14.746Z,89.14
2017-11-22T20:17:40.918Z,89.19
2017-11-22T20:20:07.070Z,89.72
2017-11-22T20:32:18.281Z,89.85
2017-11-22T20:34:44.441Z,89.85
2017-11-22T20:37:10.931Z,89.40
2017-11-22T20:39:37.193Z,89.05
2017-11-22T20:42:03.297Z,89.10
2017-11-22T20:44:29.529Z,89.01
2017-11-22T20:46:55.692Z,88.89
2017-11-22T20:49:22.125Z,88.78
2017-11-22T20:51:48.350Z,89.17
2017-11-22T20:54:14.504Z,88.96
2017-11-22T20:56:40.693Z,89.22
2017-11-22T20:59:06.907Z,89.30
2017-11-22T21:01:33.051Z,88.87
2017-11-22T21:03:59.261Z,88.66
2017-11-22T21:06:25.417Z,88.42
2017-11-22T21:08:51.545Z,88.13
2017-11-22T21:11:17.703Z,88.03
2017-11-22T21:13:44.198Z,88.01
2017-11-22T21:16:10.334Z,88.05
2017-11-22T21:18:36.621Z,88.21
2017-11-22T21:21:02.718Z,87.52
2017-11-22T21:23:28.833Z,87.51
2017-11-22T21:25:54.970Z,87.51
2017-11-22T21:28:21.093Z,87.74
2017-11-22T21:30:47.430Z,87.71
2017-11-22T21:33:13.579Z,87.40
2017-11-22T21:35:39.696Z,87.32
2017-11-22T21:38:05.817Z,87.08
2017-11-22T21:40:32.012Z,87.31
2017-11-22T21:42:58.162Z,87.10
2017-11-22T21:45:24.249Z,87.01
2017-11-22T21:47:50.442Z,86.68
2017-11-22T21:50:16.609Z,86.56
2017-11-22T21:52:42.770Z,86.80
2017-11-22T21:55:08.905Z,86.96
2017-11-22T21:57:36.263Z,87.18
2017-11-22T22:00:02.541Z,87.91
2017-11-22T22:02:28.609Z,87.73
2017-11-22T22:04:54.768Z,87.72
2017-11-22T22:07:20.917Z,87.22
2017-11-22T22:09:47.035Z,87.23
2017-11-22T22:12:13.184Z,87.43
2017-11-22T22:14:39.331Z,87.33
2017-11-22T22:17:05.446Z,87.17
2017-11-22T22:19:31.543Z,87.04
2017-11-22T22:21:57.676Z,86.97
2017-11-22T22:24:23.849Z,87.02
2017-11-22T22:26:49.962Z,87.16
2017-11-22T22:29:16.085Z,86.90
2017-11-22T22:31:42.133Z,87.22
2017-11-22T22:34:08.338Z,86.60
2017-11-22T22:36:34.494Z,87.13
2017-11-22T22:39:00.700Z,86.70
2017-11-22T22:41:26.843Z,86.80
2017-11-22T22:43:52.962Z,87.14
2017-11-22T22:46:19.119Z,86.89
2017-11-22T22:48:45.283Z,86.73
2017-11-22T22:51:11.442Z,87.07
2017-11-22T22:53:37.549Z,88.02
2017-11-22T22:56:03.693Z,89.02
2017-11-22T22:58:29.826Z,88.69
2017-11-22T23:00:55.952Z,88.76
2017-11-22T23:03:22.102Z,88.38
2017-11-22T23:05:48.268Z,88.10
2017-11-22T23:08:14.534Z,88.27
2017-11-22T23:10:40.697Z,88.11
2017-11-22T23:13:06.821Z,88.09
2017-11-22T23:15:32.944Z,87.74
2017-11-22T23:17:59.090Z,87.34
2017-11-22T23:20:25.253Z,87.20
2017-11-22T23:22:51.459Z,86.92
2017-11-22T23:25:17.570Z,87.58
2017-11-22T23:27:43.722Z,88.21
2017-11-22T23:30:09.891Z,88.28
2017-11-22T23:32:36.031Z,88.24
2017-11-22T23:35:02.230Z,87.85
2017-11-22T23:37:28.396Z,88.32
2017-11-22T23:39:54.498Z,88.66
2017-11-22T23:42:20.617Z,88.30
2017-11-22T23:44:46.768Z,87.82
2017-11-22T23:47:12.910Z,87.52
2017-11-22T23:49:39.125Z,87.62
2017-11-22T23:52:05.277Z,87.53
2017-11-22T23:54:31.469Z,87.67
2017-11-22T23:56:57.590Z,87.50
2017-11-22T23:59:23.773Z,87.30
